Time,TemperatureF,DewpointF,PressureIn,WindDirection,WindDirectionDegrees,WindSpeedMPH,WindSpeedGustMPH,Humidity,HourlyPrecipIn,Conditions,Clouds,dailyrainin,SoftwareType,DateUTC
2013-04-04 00:07:00,54.9,51.4,30.04,North,0,0.0,-999.0,88,-99.99,,,0.00,Acu-Link.com,2013-04-04 07:07:00,
2013-04-04 00:22:00,54.3,50.8,30.04,North,0,0.0,-999.0,88,-99.99,,,0.00,Acu-Link.com,2013-04-04 07:22:00,
2013-04-04 00:38:00,54.5,51.6,30.05,North,0,0.0,-999.0,90,-99.99,,,0.00,Acu-Link.com,2013-04-04 07:38:00,
2013-04-04 00:53:00,54.3,51.4,30.06,North,0,1.1,-999.0,90,-99.99,,,0.00,Acu-Link.com,2013-04-04 07:53:00,
2013-04-04 01:10:00,54.3,51.7,30.07,North,0,2.2,-999.0,91,-99.99,,,0.00,Acu-Link.com,2013-04-04 08:10:00,
2013-04-04 01:25:00,54.5,51.9,30.06,North,0,3.7,-999.0,91,-99.99,,,0.00,Acu-Link.com,2013-04-04 08:25:00,
2013-04-04 01:40:00,55.0,52.4,30.07,North,0,2.7,-999.0,91,-99.99,,,0.00,Acu-Link.com,2013-04-04 08:40:00,
2013-04-04 01:55:00,55.2,52.6,30.08,North,0,2.7,-999.0,91,-99.99,,,0.00,Acu-Link.com,2013-04-04 08:55:00,
2013-04-04 02:10:00,55.2,52.6,30.08,North,0,3.2,-999.0,91,-99.99,,,0.00,Acu-Link.com,2013-04-04 09:10:00,
2013-04-04 02:25:00,55.2,52.6,30.07,North,0,0.0,-999.0,91,-99.99,,,0.00,Acu-Link.com,2013-04-04 09:25:00,
2013-04-04 02:40:00,55.2,52.6,30.07,North,0,0.0,-999.0,91,-99.99,,,0.00,Acu-Link.com,2013-04-04 09:40:00,
2013-04-04 02:56:00,55.2,52.6,30.08,North,0,1.7,-999.0,91,-99.99,,,0.00,Acu-Link.com,2013-04-04 09:56:00,
2013-04-04 03:41:00,55.0,52.4,30.08,North,0,5.8,-999.0,91,-99.99,,,0.00,Acu-Link.com,2013-04-04 10:41:00,
2013-04-04 03:57:00,54.7,52.1,30.06,North,0,1.7,-999.0,91,-99.99,,,0.00,Acu-Link.com,2013-04-04 10:57:00,
2013-04-04 04:12:00,54.9,52.3,30.06,North,0,0.0,-999.0,91,-99.99,,,0.00,Acu-Link.com,2013-04-04 11:12:00,
2013-04-04 04:27:00,54.9,52.3,30.06,North,0,0.0,-999.0,91,-99.99,,,0.00,Acu-Link.com,2013-04-04 11:27:00,
2013-04-04 04:42:00,54.5,51.9,30.05,North,0,2.7,-999.0,91,-99.99,,,0.00,Acu-Link.com,2013-04-04 11:42:00,
2013-04-04 04:57:00,54.5,51.9,30.05,North,0,1.7,-999.0,91,-99.99,,,0.00,Acu-Link.com,2013-04-04 11:57:00,
2013-04-04 05:13:00,54.7,52.1,30.06,North,0,0.0,-999.0,91,-99.99,,,0.00,Acu-Link.com,2013-04-04 12:13:00,
2013-04-04 05:28:00,54.7,52.1,30.04,North,0,0.0,-999.0,91,-99.99,,,0.00,Acu-Link.com,2013-04-04 12:28:00,
2013-04-04 05:43:00,54.7,52.1,30.05,North,0,0.0,-999.0,91,-99.99,,,0.00,Acu-Link.com,2013-04-04 12:43:00,
2013-04-04 06:44:00,54.7,52.4,30.08,North,0,0.0,-999.0,92,-99.99,,,0.00,Acu-Link.com,2013-04-04 13:44:00,
2013-04-04 06:59:00,54.7,52.4,30.07,North,0,0.0,-999.0,92,-99.99,,,0.00,Acu-Link.com,2013-04-04 13:59:00,
2013-04-04 07:14:00,54.9,52.6,30.07,North,0,0.0,-999.0,92,-99.99,,,0.00,Acu-Link.com,2013-04-04 14:14:00,
2013-04-04 07:29:00,54.9,52.6,30.08,North,0,0.0,-999.0,92,-99.99,,,0.00,Acu-Link.com,2013-04-04 14:29:00,
2013-04-04 07:45:00,55.2,52.9,30.10,North,0,1.1,-999.0,92,-99.99,,,0.00,Acu-Link.com,2013-04-04 14:45:00,
2013-04-04 08:00:00,55.2,52.9,30.10,North,0,0.0,-999.0,92,-99.99,,,0.00,Acu-Link.com,2013-04-04 15:00:00,
2013-04-04 08:15:00,55.4,53.1,30.10,North,0,1.1,-999.0,92,-99.99,,,0.00,Acu-Link.com,2013-04-04 15:15:00,
2013-04-04 08:46:00,55.8,53.2,30.11,North,0,0.0,-999.0,91,-99.99,,,0.00,Acu-Link.com,2013-04-04 15:46:00,
2013-04-04 09:31:00,57.6,54.4,30.10,North,0,1.1,-999.0,89,-99.99,,,0.00,Acu-Link.com,2013-04-04 16:31:00,
2013-04-04 09:46:00,57.7,54.2,30.10,North,0,2.2,-999.0,88,-99.99,,,0.00,Acu-Link.com,2013-04-04 16:46:00,
2013-04-04 10:02:00,58.6,55.1,30.10,North,0,1.1,-999.0,88,-99.99,,,0.00,Acu-Link.com,2013-04-04 17:02:00,
2013-04-04 10:17:00,59.2,55.3,30.10,North,0,3.2,-999.0,87,-99.99,,,0.00,Acu-Link.com,2013-04-04 17:17:00,
2013-04-04 10:32:00,59.0,54.8,30.11,North,0,1.7,-999.0,86,-99.99,,,0.00,Acu-Link.com,2013-04-04 17:32:00,
2013-04-04 10:47:00,59.7,55.2,30.11,North,0,0.0,-999.0,85,-99.99,,,0.00,Acu-Link.com,2013-04-04 17:47:00,
2013-04-04 11:02:00,59.9,55.4,30.11,North,0,3.2,-999.0,85,-99.99,,,0.00,Acu-Link.com,2013-04-04 18:02:00,
2013-04-04 11:18:00,62.2,57.3,30.11,South,180,2.2,-999.0,84,-99.99,,,0.00,Acu-Link.com,2013-04-04 18:18:00,
2013-04-04 11:33:00,62.1,56.5,30.11,South,180,3.2,-999.0,82,-99.99,,,0.00,Acu-Link.com,2013-04-04 18:33:00,
2013-04-04 11:48:00,61.9,56.3,30.11,South,180,5.3,-999.0,82,-99.99,,,0.00,Acu-Link.com,2013-04-04 18:48:00,
2013-04-04 12:34:00,63.0,56.4,30.08,ESE,112,7.3,-999.0,79,-99.99,,,0.00,Acu-Link.com,2013-04-04 19:34:00,
2013-04-04 13:04:00,65.1,57.3,30.07,SSE,157,4.7,-999.0,76,-99.99,,,0.00,Acu-Link.com,2013-04-04 20:04:00,
2013-04-04 13:19:00,66.2,57.7,30.06,SSE,157,8.9,-999.0,74,-99.99,,,0.00,Acu-Link.com,2013-04-04 20:19:00,
2013-04-04 13:35:00,68.5,59.5,30.06,South,180,4.7,-999.0,73,-99.99,,,0.00,Acu-Link.com,2013-04-04 20:35:00,
2013-04-04 13:50:00,69.4,60.0,30.05,SSE,157,5.3,-999.0,72,-99.99,,,0.00,Acu-Link.com,2013-04-04 20:50:00,
2013-04-04 14:05:00,70.9,61.0,30.04,SSW,202,7.8,-999.0,71,-99.99,,,0.00,Acu-Link.com,2013-04-04 21:05:00,
2013-04-04 14:20:00,69.8,59.6,30.04,SE,135,9.4,-999.0,70,-99.99,,,0.00,Acu-Link.com,2013-04-04 21:20:00,
2013-04-04 14:35:00,69.1,58.5,30.03,South,180,8.3,-999.0,69,-99.99,,,0.00,Acu-Link.com,2013-04-04 21:35:00,
2013-04-04 14:51:00,69.6,58.6,30.02,South,180,6.3,-999.0,68,-99.99,,,0.00,Acu-Link.com,2013-04-04 21:51:00,
2013-04-04 15:21:00,69.3,57.9,30.01,SW,225,10.9,-999.0,67,-99.99,,,0.00,Acu-Link.com,2013-04-04 22:21:00,
2013-04-04 15:36:00,68.9,57.5,30.01,SW,225,8.9,-999.0,67,-99.99,,,0.00,Acu-Link.com,2013-04-04 22:36:00,
2013-04-04 15:51:00,68.7,57.3,30.02,West,270,3.7,-999.0,67,-99.99,,,0.00,Acu-Link.com,2013-04-04 22:51:00,
2013-04-04 16:07:00,68.0,56.6,30.01,South,180,7.8,-999.0,67,-99.99,,,0.00,Acu-Link.com,2013-04-04 23:07:00,
2013-04-04 16:22:00,66.9,56.0,30.01,South,180,5.8,-999.0,68,-99.99,,,0.00,Acu-Link.com,2013-04-04 23:22:00,
2013-04-04 16:37:00,66.4,55.9,30.00,SSW,202,5.8,-999.0,69,-99.99,,,0.00,Acu-Link.com,2013-04-04 23:37:00,
2013-04-04 16:52:00,66.0,55.9,29.98,SSW,202,8.3,-999.0,70,-99.99,,,0.00,Acu-Link.com,2013-04-04 23:52:00,
2013-04-04 17:08:00,64.8,55.2,29.98,SW,225,11.4,-999.0,71,-99.99,,,0.00,Acu-Link.com,2013-04-05 00:08:00,
2013-04-04 17:23:00,63.5,54.3,29.98,SW,225,7.8,-999.0,72,-99.99,,,0.00,Acu-Link.com,2013-04-05 00:23:00,
2013-04-04 17:38:00,62.1,53.7,29.98,SSW,202,9.9,-999.0,74,-99.99,,,0.00,Acu-Link.com,2013-04-05 00:38:00,
2013-04-04 17:53:00,62.2,54.2,29.97,South,180,4.7,-999.0,75,-99.99,,,0.00,Acu-Link.com,2013-04-05 00:53:00,
2013-04-04 18:39:00,58.6,52.4,29.99,WSW,247,7.3,-999.0,80,-99.99,,,0.00,Acu-Link.com,2013-04-05 01:39:00,
2013-04-04 18:54:00,57.7,52.6,30.00,South,180,3.7,-999.0,83,-99.99,,,0.00,Acu-Link.com,2013-04-05 01:54:00,
2013-04-04 19:09:00,57.6,52.8,30.00,SW,225,3.2,-999.0,84,-99.99,,,0.00,Acu-Link.com,2013-04-05 02:09:00,
2013-04-04 19:24:00,57.7,53.2,30.00,SW,225,5.3,-999.0,85,-99.99,,,0.00,Acu-Link.com,2013-04-05 02:24:00,
2013-04-04 19:40:00,57.6,53.4,30.00,NW,315,1.7,-999.0,86,-99.99,,,0.00,Acu-Link.com,2013-04-05 02:40:00,
2013-04-04 19:55:00,57.6,53.4,30.01,SW,225,1.7,-999.0,86,-99.99,,,0.00,Acu-Link.com,2013-04-05 02:55:00,
2013-04-04 20:10:00,57.6,53.8,30.01,SW,225,1.7,-999.0,87,-99.99,,,0.00,Acu-Link.com,2013-04-05 03:10:00,
2013-04-04 20:25:00,57.2,53.4,30.01,South,180,4.7,-999.0,87,-99.99,,,0.00,Acu-Link.com,2013-04-05 03:25:00,
2013-04-04 20:40:00,56.8,53.3,30.03,South,180,4.7,-999.0,88,-99.99,,,0.00,Acu-Link.com,2013-04-05 03:40:00,
2013-04-04 20:56:00,56.8,53.6,30.04,SSE,157,2.7,-999.0,89,-99.99,,,0.00,Acu-Link.com,2013-04-05 03:56:00,
2013-04-04 21:26:00,56.8,53.6,30.04,SW,225,1.1,-999.0,89,-99.99,,,0.00,Acu-Link.com,2013-04-05 04:26:00,
2013-04-04 21:41:00,57.0,53.8,30.04,SW,225,0.0,-999.0,89,-99.99,,,0.00,Acu-Link.com,2013-04-05 04:41:00,
2013-04-04 21:57:00,57.2,54.0,30.06,SW,225,0.0,-999.0,89,-99.99,,,0.00,Acu-Link.com,2013-04-05 04:57:00,
2013-04-04 22:12:00,57.4,54.2,30.04,SW,225,1.7,-999.0,89,-99.99,,,0.00,Acu-Link.com,2013-04-05 05:12:00,
2013-04-04 22:27:00,57.4,54.2,30.05,SW,225,1.1,-999.0,89,-99.99,,,0.00,Acu-Link.com,2013-04-05 05:27:00,
2013-04-04 22:42:00,57.4,54.2,30.06,SW,225,0.0,-999.0,89,-99.99,,,0.00,Acu-Link.com,2013-04-05 05:42:00,
2013-04-04 22:58:00,57.6,54.4,30.06,SW,225,0.0,-999.0,89,-99.99,,,0.00,Acu-Link.com,2013-04-05 05:58:00,
2013-04-04 23:13:00,57.6,54.4,30.05,SW,225,2.2,-999.0,89,-99.99,,,0.00,Acu-Link.com,2013-04-05 06:13:00,
2013-04-04 23:28:00,57.2,54.3,30.06,SW,225,2.7,-999.0,90,-99.99,,,0.00,Acu-Link.com,2013-04-05 06:28:00,
2013-04-04 23:43:00,57.2,54.3,30.06,ESE,112,0.0,-999.0,90,-99.99,,,0.00,Acu-Link.com,2013-04-05 06:43:00,